Time;durP1;ratioP1;P1;durP2;ratioP2;P2;SDS_P1;SDS_P2;PMS_P1;PMS_P2;Temp;Humidity;BMP_temperature;BMP_pressure;BME280_temperature;BME280_humidity;BME280_pressure;Samples;Min_cycle;Max_cycle;Signal;HPM_P1;HPM_P2
2024/02/15 00:00:03;;;;;;;2.00;1.20;;;;;;;;;;5026239;28;20041;-65
2024/02/15 00:02:28;;;;;;;2.03;1.45;;;;;;;;;;5025619;28;20056;-65
2024/02/15 00:04:54;;;;;;;1.88;1.40;;;;;;;;;;5025105;28;20459;-66
2024/02/15 00:07:22;;;;;;;2.00;1.50;;;;;;;;;;5025336;28;20400;-64
2024/02/15 00:09:47;;;;;;;1.88;1.50;;;;;;;;;;5023775;28;20071;-65
2024/02/15 00:12:12;;;;;;;2.72;1.50;;;;;;;;;;5029331;28;20037;-63
2024/02/15 00:14:38;;;;;;;2.35;1.50;;;;;;;;;;5025126;28;20517;-65
2024/02/15 00:17:04;;;;;;;1.98;1.20;;;;;;;;;;5018260;28;20137;-64
2024/02/15 00:19:30;;;;;;;1.63;1.25;;;;;;;;;;5019864;28;20120;-64
2024/02/15 00:21:56;;;;;;;1.90;1.40;;;;;;;;;;5022103;28;20041;-65
2024/02/15 00:24:21;;;;;;;1.80;1.40;;;;;;;;;;5025947;28;20038;-65
2024/02/15 00:26:47;;;;;;;2.38;1.13;;;;;;;;;;5026447;28;20132;-65
2024/02/15 00:29:13;;;;;;;1.73;1.30;;;;;;;;;;5023886;28;20036;-65
2024/02/15 00:31:38;;;;;;;1.83;1.40;;;;;;;;;;5024073;28;20123;-65
2024/02/15 00:34:03;;;;;;;2.00;1.30;;;;;;;;;;5023009;28;20029;-66
2024/02/15 00:36:29;;;;;;;1.45;1.20;;;;;;;;;;5025184;28;21586;-65
2024/02/15 00:38:55;;;;;;;1.90;1.27;;;;;;;;;;5024643;28;20025;-63
2024/02/15 00:41:21;;;;;;;2.33;1.50;;;;;;;;;;5025098;28;20045;-64
2024/02/15 00:43:46;;;;;;;2.05;1.40;;;;;;;;;;5020387;28;20049;-63
2024/02/15 00:46:12;;;;;;;1.60;1.17;;;;;;;;;;5005753;28;20112;-63
2024/02/15 00:48:37;;;;;;;1.98;1.33;;;;;;;;;;5022990;28;20047;-62
2024/02/15 00:51:03;;;;;;;2.35;1.15;;;;;;;;;;5024392;28;20124;-62
2024/02/15 00:53:28;;;;;;;1.80;1.38;;;;;;;;;;5021937;28;20068;-62
2024/02/15 00:55:53;;;;;;;1.73;1.38;;;;;;;;;;5023727;28;20414;-62
2024/02/15 00:58:19;;;;;;;1.88;1.55;;;;;;;;;;5027311;28;20033;-62
2024/02/15 01:00:44;;;;;;;1.92;1.45;;;;;;;;;;5023610;28;20049;-62
2024/02/15 01:03:19;;;;;;;2.22;1.40;;;;;;;;;;5023911;28;20045;-62
2024/02/15 01:05:44;;;;;;;1.90;1.40;;;;;;;;;;5024545;28;20401;-62
2024/02/15 01:08:10;;;;;;;2.38;1.30;;;;;;;;;;5025183;28;20398;-62
2024/02/15 01:10:36;;;;;;;2.00;1.58;;;;;;;;;;5025613;28;20052;-62
2024/02/15 01:13:02;;;;;;;2.15;1.45;;;;;;;;;;5020922;28;20129;-62
2024/02/15 01:15:27;;;;;;;1.52;1.10;;;;;;;;;;5026869;28;20105;-62
2024/02/15 01:17:52;;;;;;;1.60;1.30;;;;;;;;;;5022963;28;20099;-64
2024/02/15 01:20:17;;;;;;;1.73;1.50;;;;;;;;;;5019534;28;20325;-65
2024/02/15 01:22:44;;;;;;;1.52;1.30;;;;;;;;;;5016500;28;20592;-64
2024/02/15 01:25:10;;;;;;;2.35;1.55;;;;;;;;;;5016734;28;20033;-65
2024/02/15 01:27:36;;;;;;;2.30;1.50;;;;;;;;;;5016802;28;20025;-63
2024/02/15 01:30:01;;;;;;;1.95;1.23;;;;;;;;;;5022585;28;20110;-64
2024/02/15 01:32:26;;;;;;;2.35;1.35;;;;;;;;;;5019387;28;20029;-63
2024/02/15 01:34:53;;;;;;;2.00;1.35;;;;;;;;;;5021873;28;20052;-64
2024/02/15 01:37:20;;;;;;;2.33;1.63;;;;;;;;;;5020921;28;20025;-64
2024/02/15 01:39:46;;;;;;;2.13;1.38;;;;;;;;;;5004473;28;20574;-65
2024/02/15 01:42:13;;;;;;;2.00;1.45;;;;;;;;;;5025513;28;20037;-65
2024/02/15 01:44:39;;;;;;;1.70;1.40;;;;;;;;;;5026406;28;20034;-65
2024/02/15 01:47:04;;;;;;;1.63;1.20;;;;;;;;;;5027082;28;20506;-65
2024/02/15 01:49:30;;;;;;;1.80;1.40;;;;;;;;;;5025798;28;20122;-66
2024/02/15 01:51:56;;;;;;;1.70;1.35;;;;;;;;;;5023615;28;20384;-66
2024/02/15 01:54:21;;;;;;;2.17;1.38;;;;;;;;;;5024030;28;20079;-65
2024/02/15 01:56:47;;;;;;;2.17;1.50;;;;;;;;;;5008811;28;20030;-67
2024/02/15 01:59:13;;;;;;;1.95;1.40;;;;;;;;;;5025938;28;20064;-65
2024/02/15 02:01:39;;;;;;;2.08;1.52;;;;;;;;;;5009170;28;20132;-65
2024/02/15 02:04:04;;;;;;;1.92;1.52;;;;;;;;;;5006439;28;20194;-65
2024/02/15 02:06:30;;;;;;;1.75;1.13;;;;;;;;;;5040467;28;20052;-65
2024/02/15 02:08:56;;;;;;;2.05;1.35;;;;;;;;;;5023962;28;20486;-65
2024/02/15 02:11:22;;;;;;;1.77;1.48;;;;;;;;;;5006303;28;20629;-65
2024/02/15 02:13:47;;;;;;;1.80;1.30;;;;;;;;;;5026067;28;20045;-66
2024/02/15 02:16:27;;;;;;;2.05;1.30;;;;;;;;;;5025633;28;20033;-65
2024/02/15 02:18:54;;;;;;;1.98;1.40;;;;;;;;;;5025959;28;20045;-65
2024/02/15 02:21:19;;;;;;;2.03;1.20;;;;;;;;;;5026363;28;20041;-66
2024/02/15 02:23:46;;;;;;;1.98;1.42;;;;;;;;;;5026223;28;20095;-66
2024/02/15 02:26:12;;;;;;;2.05;1.73;;;;;;;;;;5026163;28;20056;-65
2024/02/15 02:28:38;;;;;;;2.08;1.42;;;;;;;;;;5007291;28;20037;-65
2024/02/15 02:31:06;;;;;;;1.90;1.40;;;;;;;;;;5026584;28;20037;-66
2024/02/15 02:33:33;;;;;;;2.72;1.30;;;;;;;;;;5022639;28;20049;-65
2024/02/15 02:35:58;;;;;;;1.67;1.20;;;;;;;;;;5025731;28;20029;-65
2024/02/15 02:38:26;;;;;;;2.20;1.38;;;;;;;;;;5008025;28;20087;-64
2024/02/15 02:40:52;;;;;;;2.03;1.30;;;;;;;;;;5026143;28;20122;-64
2024/02/15 02:43:17;;;;;;;2.22;1.50;;;;;;;;;;5025772;28;20033;-65
2024/02/15 02:45:43;;;;;;;1.83;1.30;;;;;;;;;;5018569;28;20041;-65
2024/02/15 02:48:08;;;;;;;1.90;1.35;;;;;;;;;;5026134;28;20033;-66
2024/02/15 02:50:33;;;;;;;1.85;1.10;;;;;;;;;;5025632;28;20526;-66
2024/02/15 02:52:59;;;;;;;2.40;1.30;;;;;;;;;;5004754;28;20049;-64
2024/02/15 02:55:27;;;;;;;1.58;1.38;;;;;;;;;;5023924;28;20037;-65
2024/02/15 02:57:54;;;;;;;1.70;1.20;;;;;;;;;;5026438;28;20041;-65
2024/02/15 03:00:20;;;;;;;1.98;1.38;;;;;;;;;;5025411;28;20049;-65
2024/02/15 03:02:45;;;;;;;2.40;1.27;;;;;;;;;;5026249;28;20041;-65
2024/02/15 03:05:11;;;;;;;1.90;1.30;;;;;;;;;;5005494;28;20099;-65
2024/02/15 03:07:37;;;;;;;2.25;1.55;;;;;;;;;;5026026;28;20091;-65
2024/02/15 03:10:04;;;;;;;2.70;1.55;;;;;;;;;;5023898;28;20041;-65
2024/02/15 03:12:29;;;;;;;1.70;1.17;;;;;;;;;;5024237;28;20067;-64
2024/02/15 03:14:55;;;;;;;1.83;1.30;;;;;;;;;;5023760;28;20898;-65
2024/02/15 03:17:20;;;;;;;2.22;1.65;;;;;;;;;;5025079;28;20040;-65
2024/02/15 03:19:45;;;;;;;1.67;1.23;;;;;;;;;;5025523;28;20041;-64
2024/02/15 03:22:13;;;;;;;1.73;1.42;;;;;;;;;;5024938;28;20049;-65
2024/02/15 03:24:39;;;;;;;1.52;1.33;;;;;;;;;;5024763;28;20042;-64
2024/02/15 03:27:05;;;;;;;1.98;1.35;;;;;;;;;;5024381;28;20033;-64
2024/02/15 03:29:30;;;;;;;1.83;1.50;;;;;;;;;;5022794;28;20087;-62
2024/02/15 03:31:55;;;;;;;2.13;1.60;;;;;;;;;;5023305;28;20078;-63
2024/02/15 03:34:23;;;;;;;1.90;1.45;;;;;;;;;;5024080;28;20168;-63
2024/02/15 03:36:53;;;;;;;2.10;1.60;;;;;;;;;;5024534;28;20065;-63
2024/02/15 03:39:18;;;;;;;2.25;1.42;;;;;;;;;;5023427;28;20814;-63
2024/02/15 03:41:45;;;;;;;1.90;1.40;;;;;;;;;;5022994;28;20438;-64
2024/02/15 03:44:11;;;;;;;2.03;1.50;;;;;;;;;;5023038;28;20094;-64
2024/02/15 03:46:36;;;;;;;2.10;1.60;;;;;;;;;;5024161;28;20049;-63
2024/02/15 03:49:01;;;;;;;2.30;1.70;;;;;;;;;;5024537;28;20195;-64
2024/02/15 03:51:27;;;;;;;1.40;1.10;;;;;;;;;;5022234;28;20072;-65
2024/02/15 03:53:52;;;;;;;1.55;1.40;;;;;;;;;;5024592;28;20030;-65
2024/02/15 03:56:19;;;;;;;2.20;1.45;;;;;;;;;;5025059;28;20039;-64
2024/02/15 03:58:45;;;;;;;2.35;1.40;;;;;;;;;;5024804;28;20116;-64
2024/02/15 04:01:13;;;;;;;2.15;1.42;;;;;;;;;;5024292;28;20134;-66
2024/02/15 04:03:39;;;;;;;1.80;1.33;;;;;;;;;;5024830;28;20082;-64
2024/02/15 04:06:05;;;;;;;2.13;1.52;;;;;;;;;;5022439;28;20037;-65
2024/02/15 04:08:30;;;;;;;1.90;1.60;;;;;;;;;;5023256;28;20113;-65
2024/02/15 04:10:57;;;;;;;2.05;1.40;;;;;;;;;;5022092;28;20507;-65
2024/02/15 04:13:24;;;;;;;2.00;1.45;;;;;;;;;;5023817;28;20087;-64
2024/02/15 04:15:50;;;;;;;2.67;1.60;;;;;;;;;;5022872;28;20029;-65
2024/02/15 04:18:16;;;;;;;2.17;1.58;;;;;;;;;;5024958;28;20768;-64
2024/02/15 04:20:44;;;;;;;2.38;1.50;;;;;;;;;;5024028;28;20081;-65
2024/02/15 04:23:10;;;;;;;1.95;1.58;;;;;;;;;;5023415;28;20029;-65
2024/02/15 04:25:36;;;;;;;1.95;1.30;;;;;;;;;;5023883;28;20044;-64
2024/02/15 04:28:03;;;;;;;1.92;1.38;;;;;;;;;;5022989;28;20052;-64
2024/02/15 04:30:29;;;;;;;2.47;1.50;;;;;;;;;;5024175;28;20074;-64
2024/02/15 04:32:54;;;;;;;1.90;1.58;;;;;;;;;;5023649;28;20118;-64
2024/02/15 04:35:19;;;;;;;1.67;1.20;;;;;;;;;;5023592;28;20041;-63
2024/02/15 04:37:46;;;;;;;2.25;1.30;;;;;;;;;;5023154;28;20111;-64
2024/02/15 04:40:13;;;;;;;1.92;1.45;;;;;;;;;;5024125;28;20049;-64
2024/02/15 04:42:39;;;;;;;2.05;1.33;;;;;;;;;;5023542;28;20030;-65
2024/02/15 04:45:08;;;;;;;2.20;1.40;;;;;;;;;;5023523;28;20248;-64
2024/02/15 04:47:33;;;;;;;1.75;1.25;;;;;;;;;;5022226;28;20044;-65
2024/02/15 04:49:59;;;;;;;1.50;1.25;;;;;;;;;;5020645;28;20038;-65
2024/02/15 04:52:24;;;;;;;2.15;1.45;;;;;;;;;;5022783;28;20029;-66
2024/02/15 04:54:49;;;;;;;2.20;1.55;;;;;;;;;;5023644;28;20052;-65
2024/02/15 04:57:16;;;;;;;2.25;1.58;;;;;;;;;;5023673;28;20538;-65
2024/02/15 04:59:46;;;;;;;2.13;1.50;;;;;;;;;;5024347;28;20438;-65
2024/02/15 05:02:13;;;;;;;1.85;1.48;;;;;;;;;;5021973;28;20122;-65
2024/02/15 05:04:42;;;;;;;1.50;1.30;;;;;;;;;;5011881;28;20092;-68
2024/02/15 05:07:07;;;;;;;2.42;1.77;;;;;;;;;;5020878;28;20127;-65
2024/02/15 05:09:34;;;;;;;2.22;1.45;;;;;;;;;;4998319;28;20041;-62
2024/02/15 05:11:59;;;;;;;2.47;1.35;;;;;;;;;;5019755;28;20040;-65
2024/02/15 05:14:26;;;;;;;2.58;1.52;;;;;;;;;;5023315;28;20109;-65
2024/02/15 05:16:51;;;;;;;2.53;1.58;;;;;;;;;;5032879;28;20045;-64
2024/02/15 05:19:17;;;;;;;1.95;1.30;;;;;;;;;;5034142;28;20067;-66
2024/02/15 05:21:45;;;;;;;2.78;1.50;;;;;;;;;;5008654;28;20656;-66
2024/02/15 05:24:14;;;;;;;2.70;1.40;;;;;;;;;;5034436;28;20064;-66
2024/02/15 05:26:40;;;;;;;1.92;1.50;;;;;;;;;;5021844;28;20856;-67
2024/02/15 05:29:05;;;;;;;2.38;1.45;;;;;;;;;;5025665;28;20025;-67
2024/02/15 05:31:31;;;;;;;1.92;1.40;;;;;;;;;;5023697;28;20029;-68
2024/02/15 05:33:57;;;;;;;2.85;1.40;;;;;;;;;;5013644;28;20033;-67
2024/02/15 05:36:25;;;;;;;2.22;1.45;;;;;;;;;;5011648;28;20026;-66
2024/02/15 05:38:51;;;;;;;1.95;1.50;;;;;;;;;;5012973;28;20029;-66
2024/02/15 05:41:19;;;;;;;1.85;1.35;;;;;;;;;;5026321;28;20052;-67
2024/02/15 05:43:44;;;;;;;1.90;1.40;;;;;;;;;;5019538;28;20041;-69
2024/02/15 05:46:10;;;;;;;2.17;1.40;;;;;;;;;;5018170;28;20435;-67
2024/02/15 05:48:36;;;;;;;1.75;1.23;;;;;;;;;;5020633;28;20033;-68
2024/02/15 05:51:02;;;;;;;2.13;1.33;;;;;;;;;;5020399;28;20021;-69
2024/02/15 05:53:27;;;;;;;1.88;1.40;;;;;;;;;;5019247;28;20159;-67
2024/02/15 05:55:52;;;;;;;1.80;1.30;;;;;;;;;;5018741;28;20021;-66
2024/02/15 05:58:18;;;;;;;2.40;1.42;;;;;;;;;;5017914;28;20033;-67
2024/02/15 06:00:49;;;;;;;2.47;1.52;;;;;;;;;;5017889;28;20075;-68
2024/02/15 06:03:15;;;;;;;2.45;1.30;;;;;;;;;;5017250;28;20134;-72
2024/02/15 06:05:41;;;;;;;2.55;1.50;;;;;;;;;;5019782;28;20136;-73
2024/02/15 06:08:06;;;;;;;2.25;1.40;;;;;;;;;;5018965;28;20060;-71
2024/02/15 06:10:32;;;;;;;1.60;1.33;;;;;;;;;;5019688;28;20037;-69
2024/02/15 06:12:59;;;;;;;1.60;1.23;;;;;;;;;;5017999;28;20093;-74
2024/02/15 06:15:24;;;;;;;2.88;1.55;;;;;;;;;;4995029;28;20045;-69
2024/02/15 06:17:49;;;;;;;2.67;1.40;;;;;;;;;;5018571;28;20048;-70
2024/02/15 06:20:17;;;;;;;2.65;1.38;;;;;;;;;;5018787;28;20041;-70
2024/02/15 06:22:42;;;;;;;1.80;1.40;;;;;;;;;;5016943;28;20041;-70
2024/02/15 06:25:08;;;;;;;2.38;1.40;;;;;;;;;;5020960;28;20442;-66
2024/02/15 06:27:33;;;;;;;1.42;1.08;;;;;;;;;;5017503;28;20041;-70
2024/02/15 06:40:54;;;;;;;1.92;1.35;;;;;;;;;;5018759;28;20174;-72
2024/02/15 06:43:20;;;;;;;1.63;1.23;;;;;;;;;;5017145;28;20037;-69
2024/02/15 06:45:46;;;;;;;1.85;1.30;;;;;;;;;;5018239;28;20067;-68
2024/02/15 06:48:12;;;;;;;1.70;1.23;;;;;;;;;;5018302;28;20527;-70
2024/02/15 06:50:37;;;;;;;1.85;1.15;;;;;;;;;;5019256;28;20492;-68
2024/02/15 06:53:04;;;;;;;2.00;1.50;;;;;;;;;;5015320;28;20038;-65
2024/02/15 06:55:30;;;;;;;2.05;1.35;;;;;;;;;;4999780;28;20046;-64
2024/02/15 06:57:55;;;;;;;1.58;1.05;;;;;;;;;;5016081;28;20026;-64
2024/02/15 07:00:21;;;;;;;1.92;1.40;;;;;;;;;;5017775;28;20056;-67
2024/02/15 07:02:48;;;;;;;1.50;1.25;;;;;;;;;;5019238;28;20602;-63
2024/02/15 07:05:17;;;;;;;2.85;1.33;;;;;;;;;;5017077;28;20041;-65
2024/02/15 07:07:42;;;;;;;3.67;1.23;;;;;;;;;;5031297;28;20044;-64
2024/02/15 07:10:08;;;;;;;1.92;1.40;;;;;;;;;;5017311;28;20030;-70
2024/02/15 07:12:34;;;;;;;1.85;1.05;;;;;;;;;;5016375;28;20072;-65
2024/02/15 07:15:01;;;;;;;1.60;1.10;;;;;;;;;;5015142;28;20104;-65
2024/02/15 07:17:26;;;;;;;2.17;1.40;;;;;;;;;;5016022;28;20807;-69
2024/02/15 07:19:52;;;;;;;2.03;1.48;;;;;;;;;;5017534;28;20114;-72
2024/02/15 07:22:18;;;;;;;1.83;1.20;;;;;;;;;;5017252;28;20048;-70
2024/02/15 07:24:43;;;;;;;2.72;1.30;;;;;;;;;;5016172;28;20217;-67
2024/02/15 07:27:09;;;;;;;2.65;1.38;;;;;;;;;;5015583;28;20130;-70
2024/02/15 07:29:37;;;;;;;2.15;1.38;;;;;;;;;;5017074;28;20129;-65
2024/02/15 07:32:06;;;;;;;2.45;1.50;;;;;;;;;;5015917;28;20379;-67
2024/02/15 07:34:32;;;;;;;2.70;1.40;;;;;;;;;;5015772;28;20560;-70
2024/02/15 07:36:58;;;;;;;1.88;1.25;;;;;;;;;;5016932;28;20030;-65
2024/02/15 07:39:24;;;;;;;1.48;0.98;;;;;;;;;;5016562;28;20462;-69
2024/02/15 07:41:50;;;;;;;1.98;1.20;;;;;;;;;;5032633;28;20119;-70
2024/02/15 07:44:17;;;;;;;2.13;1.23;;;;;;;;;;5013866;28;20100;-71
2024/02/15 07:46:42;;;;;;;2.13;1.30;;;;;;;;;;5019703;28;20526;-70
2024/02/15 07:49:08;;;;;;;1.60;1.25;;;;;;;;;;5018346;28;20029;-65
2024/02/15 07:51:33;;;;;;;2.20;1.40;;;;;;;;;;5018365;28;20284;-68
2024/02/15 07:53:58;;;;;;;1.50;1.20;;;;;;;;;;5018452;28;20607;-68
2024/02/15 07:56:24;;;;;;;2.47;1.40;;;;;;;;;;5019146;28;22007;-67
2024/02/15 07:58:51;;;;;;;2.55;1.45;;;;;;;;;;5017405;28;20575;-66
2024/02/15 08:01:17;;;;;;;2.97;1.40;;;;;;;;;;5017720;28;20531;-68
2024/02/15 08:03:45;;;;;;;2.83;1.60;;;;;;;;;;5017953;28;20032;-67
2024/02/15 08:06:14;;;;;;;2.60;1.23;;;;;;;;;;5016826;28;20044;-68
2024/02/15 08:08:41;;;;;;;2.20;1.20;;;;;;;;;;5017527;28;20021;-69
2024/02/15 08:11:10;;;;;;;2.20;1.30;;;;;;;;;;5015922;28;20035;-67
2024/02/15 08:13:38;;;;;;;1.60;1.20;;;;;;;;;;5017062;28;20025;-68
2024/02/15 08:16:05;;;;;;;1.67;1.20;;;;;;;;;;5016727;28;20083;-69
2024/02/15 08:18:30;;;;;;;1.73;1.15;;;;;;;;;;5018258;28;20564;-69
2024/02/15 08:20:56;;;;;;;2.17;1.10;;;;;;;;;;5018276;28;20103;-66
2024/02/15 08:23:21;;;;;;;2.53;1.52;;;;;;;;;;5017953;28;20037;-66
2024/02/15 08:25:47;;;;;;;2.50;1.65;;;;;;;;;;5016152;28;20112;-68
2024/02/15 08:28:13;;;;;;;2.33;1.40;;;;;;;;;;5015735;28;20068;-69
2024/02/15 08:30:38;;;;;;;2.00;1.15;;;;;;;;;;5015830;28;20396;-69
2024/02/15 08:33:04;;;;;;;3.08;1.33;;;;;;;;;;4997748;28;20033;-69
2024/02/15 08:35:29;;;;;;;2.50;1.27;;;;;;;;;;5018183;28;20668;-68
2024/02/15 08:37:55;;;;;;;2.38;1.35;;;;;;;;;;5018207;28;20060;-68
2024/02/15 08:40:25;;;;;;;2.20;1.38;;;;;;;;;;5018001;28;20164;-69
2024/02/15 08:42:50;;;;;;;1.98;1.27;;;;;;;;;;5020174;28;20065;-68
2024/02/15 08:45:15;;;;;;;1.83;1.30;;;;;;;;;;5023427;28;20368;-69
2024/02/15 08:47:41;;;;;;;2.05;1.40;;;;;;;;;;5022787;28;20033;-70
2024/02/15 08:50:09;;;;;;;1.80;1.10;;;;;;;;;;5023146;28;20034;-69
2024/02/15 08:52:37;;;;;;;1.52;1.15;;;;;;;;;;5024489;28;20055;-69
2024/02/15 08:55:06;;;;;;;1.33;1.02;;;;;;;;;;5019374;28;20049;-69
2024/02/15 08:57:32;;;;;;;;;;;;;;;;;;5021062;28;20030;-70
2024/02/15 08:59:58;;;;;;;1.77;1.10;;;;;;;;;;5020238;28;19952;-69
2024/02/15 09:02:23;;;;;;;1.73;1.20;;;;;;;;;;5019485;28;20034;-68
2024/02/15 09:04:48;;;;;;;1.85;1.30;;;;;;;;;;5020957;28;20037;-68
2024/02/15 09:09:58;;;;;;;2.15;1.40;;;;;;;;;;5025649;28;20068;-67
2024/02/15 09:12:23;;;;;;;1.40;1.17;;;;;;;;;;5026878;28;20128;-67
2024/02/15 09:14:49;;;;;;;2.38;1.10;;;;;;;;;;5025910;28;20483;-67
2024/02/15 09:17:14;;;;;;;1.80;1.30;;;;;;;;;;5023013;28;20041;-67
2024/02/15 09:19:39;;;;;;;1.85;1.20;;;;;;;;;;5020692;28;20038;-69
2024/02/15 09:22:06;;;;;;;1.80;1.20;;;;;;;;;;5022737;28;20045;-70
2024/02/15 09:24:33;;;;;;;1.38;0.90;;;;;;;;;;5023018;28;20046;-69
2024/02/15 09:26:59;;;;;;;2.17;1.35;;;;;;;;;;5023893;28;20075;-68
2024/02/15 09:29:24;;;;;;;2.50;1.30;;;;;;;;;;5023152;28;20527;-69
2024/02/15 09:31:49;;;;;;;2.22;1.30;;;;;;;;;;5023749;28;20499;-68
2024/02/15 09:34:15;;;;;;;2.00;1.30;;;;;;;;;;5022805;28;20044;-68
2024/02/15 09:36:40;;;;;;;1.92;1.40;;;;;;;;;;5023524;28;20029;-69
2024/02/15 09:39:06;;;;;;;2.47;1.27;;;;;;;;;;5003802;28;20450;-68
2024/02/15 09:41:31;;;;;;;1.80;1.15;;;;;;;;;;5023235;28;20494;-71
2024/02/15 09:43:57;;;;;;;1.40;1.10;;;;;;;;;;5024050;28;20160;-70
2024/02/15 09:46:22;;;;;;;1.73;1.13;;;;;;;;;;5022286;28;20132;-67
2024/02/15 09:48:49;;;;;;;2.13;1.20;;;;;;;;;;5023410;28;20057;-70
2024/02/15 09:51:15;;;;;;;1.92;1.20;;;;;;;;;;5023037;28;20140;-69
2024/02/15 09:53:40;;;;;;;2.38;1.45;;;;;;;;;;5023269;28;20599;-68
2024/02/15 09:56:06;;;;;;;1.80;1.30;;;;;;;;;;5021388;28;20045;-69
2024/02/15 09:58:34;;;;;;;1.33;1.00;;;;;;;;;;5030869;28;20033;-68
2024/02/15 10:01:05;;;;;;;1.83;1.20;;;;;;;;;;5008932;28;20149;-66
2024/02/15 10:03:31;;;;;;;1.80;1.30;;;;;;;;;;5012502;28;20124;-66
2024/02/15 10:05:57;;;;;;;1.75;1.27;;;;;;;;;;4995616;28;20117;-68
2024/02/15 10:08:24;;;;;;;2.45;1.15;;;;;;;;;;5015194;28;20033;-68
2024/02/15 10:11:04;;;;;;;13.93;11.23;;;;;;;;;;5020851;28;20650;-66
2024/02/15 10:13:31;;;;;;;75.55;56.75;;;;;;;;;;5022679;28;20041;-68
2024/02/15 10:15:57;;;;;;;38.75;32.22;;;;;;;;;;5022871;28;20041;-69
2024/02/15 10:18:22;;;;;;;35.90;29.40;;;;;;;;;;5020009;28;20065;-68
2024/02/15 10:20:56;;;;;;;33.17;26.67;;;;;;;;;;5020494;28;20360;-67
2024/02/15 10:23:22;;;;;;;69.85;54.50;;;;;;;;;;4997173;28;20168;-65
2024/02/15 10:25:47;;;;;;;49.20;39.47;;;;;;;;;;5017181;28;20054;-69
2024/02/15 10:28:15;;;;;;;18.70;12.85;;;;;;;;;;5019557;28;20061;-67
2024/02/15 10:30:44;;;;;;;22.95;17.05;;;;;;;;;;5020765;28;20761;-68
2024/02/15 10:33:10;;;;;;;24.42;19.08;;;;;;;;;;5002038;28;20151;-68
2024/02/15 10:35:36;;;;;;;20.98;17.60;;;;;;;;;;4995559;28;20128;-67
2024/02/15 10:38:11;;;;;;;20.70;16.13;;;;;;;;;;5021302;28;20550;-66
2024/02/15 10:40:43;;;;;;;20.00;15.40;;;;;;;;;;5020045;28;20530;-67
2024/02/15 10:43:10;;;;;;;18.80;13.88;;;;;;;;;;5017092;28;20535;-66
2024/02/15 10:45:39;;;;;;;16.70;12.63;;;;;;;;;;5022925;28;20041;-67
2024/02/15 10:48:11;;;;;;;16.73;11.93;;;;;;;;;;5022195;28;20051;-67
2024/02/15 10:50:41;;;;;;;15.02;11.30;;;;;;;;;;5021274;28;20083;-69
2024/02/15 10:53:27;;;;;;;12.65;10.18;;;;;;;;;;5017335;28;20467;-68
2024/02/15 10:55:56;;;;;;;11.65;8.90;;;;;;;;;;5018607;28;20037;-67
2024/02/15 10:58:22;;;;;;;12.00;8.38;;;;;;;;;;5019773;28;20164;-66
2024/02/15 11:00:47;;;;;;;11.55;7.38;;;;;;;;;;5020242;28;20049;-66
2024/02/15 11:03:15;;;;;;;10.70;6.85;;;;;;;;;;4999594;28;20111;-66
2024/02/15 11:05:41;;;;;;;9.52;6.50;;;;;;;;;;4994485;28;20093;-66
2024/02/15 11:08:08;;;;;;;8.00;6.13;;;;;;;;;;4996901;28;20507;-67
2024/02/15 11:10:36;;;;;;;7.72;5.32;;;;;;;;;;5023890;28;20465;-67
2024/02/15 11:13:02;;;;;;;7.70;5.63;;;;;;;;;;5013551;28;20041;-67
2024/02/15 11:15:51;;;;;;;6.97;5.30;;;;;;;;;;5020056;28;20029;-66
2024/02/15 11:18:35;;;;;;;7.18;5.00;;;;;;;;;;5017291;28;20037;-66
2024/02/15 11:21:00;;;;;;;6.15;4.45;;;;;;;;;;5017336;28;20418;-66
2024/02/15 11:23:26;;;;;;;5.78;4.35;;;;;;;;;;5017579;28;20161;-64
2024/02/15 11:25:52;;;;;;;5.95;4.28;;;;;;;;;;5019952;28;20040;-66
2024/02/15 11:28:20;;;;;;;5.40;4.20;;;;;;;;;;5002895;28;20029;-65
2024/02/15 11:30:45;;;;;;;5.93;3.80;;;;;;;;;;5017113;28;20029;-64
2024/02/15 11:33:38;;;;;;;6.72;3.78;;;;;;;;;;5014519;28;20064;-66
2024/02/15 11:36:11;;;;;;;5.32;3.67;;;;;;;;;;4998466;28;20503;-64
2024/02/15 11:38:36;;;;;;;5.30;3.28;;;;;;;;;;4994993;28;20037;-68
2024/02/15 11:41:05;;;;;;;6.03;3.35;;;;;;;;;;5016656;28;20055;-66
2024/02/15 11:43:49;;;;;;;5.28;3.30;;;;;;;;;;5017528;28;20029;-67
2024/02/15 11:46:20;;;;;;;5.13;3.03;;;;;;;;;;5022143;28;20049;-68
2024/02/15 11:48:48;;;;;;;4.57;3.00;;;;;;;;;;5018838;28;20815;-70
2024/02/15 11:51:30;;;;;;;4.22;3.00;;;;;;;;;;5020596;28;20476;-66
2024/02/15 11:54:08;;;;;;;4.32;3.00;;;;;;;;;;5019068;28;20034;-65
2024/02/15 11:57:04;;;;;;;4.30;2.90;;;;;;;;;;5019329;28;20112;-68
2024/02/15 11:59:31;;;;;;;3.83;2.70;;;;;;;;;;5017083;28;20025;-66
2024/02/15 12:18:42;;;;;;;4.47;2.58;;;;;;;;;;5017067;28;20478;-70
2024/02/15 12:21:09;;;;;;;3.47;2.40;;;;;;;;;;5017846;28;20057;-69
2024/02/15 12:23:35;;;;;;;3.90;2.60;;;;;;;;;;5032262;28;20531;-69
2024/02/15 12:26:03;;;;;;;3.72;2.38;;;;;;;;;;5001828;28;20041;-67
2024/02/15 12:28:28;;;;;;;2.92;2.03;;;;;;;;;;4996088;28;20052;-68
2024/02/15 12:30:58;;;;;;;2.97;2.33;;;;;;;;;;5021650;28;20045;-68
2024/02/15 12:33:23;;;;;;;5.22;3.85;;;;;;;;;;5020794;28;20499;-67
2024/02/15 12:35:50;;;;;;;3.90;2.72;;;;;;;;;;5019962;28;20099;-68
2024/02/15 12:38:18;;;;;;;3.83;2.83;;;;;;;;;;5001954;28;20495;-69
2024/02/15 12:40:44;;;;;;;4.63;2.65;;;;;;;;;;5018998;28;20143;-73
2024/02/15 12:43:10;;;;;;;6.22;3.13;;;;;;;;;;5016422;28;20041;-71
2024/02/15 12:45:36;;;;;;;6.22;3.50;;;;;;;;;;5016263;28;20072;-68
2024/02/15 12:48:05;;;;;;;5.57;3.40;;;;;;;;;;5018167;28;20041;-71
2024/02/15 12:50:31;;;;;;;4.70;3.53;;;;;;;;;;5014246;28;20584;-71
2024/02/15 12:53:01;;;;;;;4.47;3.42;;;;;;;;;;5017521;28;20065;-69
2024/02/15 12:55:27;;;;;;;4.93;3.50;;;;;;;;;;5010936;28;20724;-70
2024/02/15 12:57:55;;;;;;;5.45;3.60;;;;;;;;;;5021905;28;20045;-70
2024/02/15 13:00:28;;;;;;;6.05;3.80;;;;;;;;;;5016788;28;20419;-69
2024/02/15 13:02:54;;;;;;;7.50;3.90;;;;;;;;;;5013599;28;20583;-70
2024/02/15 13:05:19;;;;;;;4.47;3.60;;;;;;;;;;5013737;28;20085;-70
2024/02/15 13:07:45;;;;;;;5.65;3.72;;;;;;;;;;5024215;28;20500;-70
2024/02/15 13:10:11;;;;;;;4.38;3.40;;;;;;;;;;5012529;28;20468;-68
2024/02/15 13:12:37;;;;;;;5.30;3.78;;;;;;;;;;5009100;28;20071;-67
2024/02/15 13:15:03;;;;;;;3.25;2.90;;;;;;;;;;5021118;28;20064;-69
2024/02/15 13:17:29;;;;;;;4.38;3.22;;;;;;;;;;5022354;28;20081;-67
2024/02/15 13:20:02;;;;;;;5.28;3.60;;;;;;;;;;5016276;28;20029;-66
2024/02/15 13:22:27;;;;;;;4.47;3.20;;;;;;;;;;5015032;28;20054;-69
2024/02/15 13:24:55;;;;;;;4.50;3.42;;;;;;;;;;5009731;28;20750;-71
2024/02/15 13:27:23;;;;;;;4.97;3.25;;;;;;;;;;5021806;28;20487;-71
2024/02/15 13:29:49;;;;;;;4.97;3.78;;;;;;;;;;5022350;28;20113;-69
2024/02/15 13:32:16;;;;;;;4.78;3.50;;;;;;;;;;5017818;28;20521;-69
2024/02/15 13:34:42;;;;;;;5.13;3.60;;;;;;;;;;5021388;28;20034;-71
2024/02/15 13:37:07;;;;;;;6.90;3.50;;;;;;;;;;5024202;28;20038;-69
2024/02/15 13:39:33;;;;;;;4.70;3.50;;;;;;;;;;5014887;28;20038;-70
2024/02/15 13:42:01;;;;;;;5.82;3.80;;;;;;;;;;5016503;28;20084;-70
2024/02/15 13:44:27;;;;;;;5.32;3.80;;;;;;;;;;5011498;28;20034;-70
2024/02/15 13:46:55;;;;;;;5.15;3.63;;;;;;;;;;5026090;28;20029;-66
2024/02/15 13:49:21;;;;;;;5.35;3.22;;;;;;;;;;5023744;28;20034;-68
2024/02/15 13:51:46;;;;;;;5.97;3.67;;;;;;;;;;5018620;28;20083;-68
2024/02/15 13:54:11;;;;;;;4.93;3.35;;;;;;;;;;5018840;28;20133;-69
2024/02/15 13:56:38;;;;;;;5.60;3.95;;;;;;;;;;5020622;28;20038;-70
2024/02/15 13:59:04;;;;;;;4.97;3.80;;;;;;;;;;5025260;28;20526;-72
2024/02/15 14:01:30;;;;;;;4.57;3.53;;;;;;;;;;5023020;28;20041;-68
2024/02/15 14:03:55;;;;;;;4.63;3.50;;;;;;;;;;5018731;28;20026;-70
2024/02/15 14:06:20;;;;;;;5.97;3.05;;;;;;;;;;5025977;28;20029;-71
2024/02/15 14:08:46;;;;;;;5.18;3.63;;;;;;;;;;5018668;28;20108;-70
2024/02/15 14:11:12;;;;;;;4.45;3.30;;;;;;;;;;5002340;28;20052;-69
2024/02/15 14:13:37;;;;;;;7.28;4.57;;;;;;;;;;5021542;28;20128;-66
2024/02/15 14:16:03;;;;;;;4.45;3.50;;;;;;;;;;5027205;28;20506;-69
2024/02/15 14:18:29;;;;;;;5.90;3.10;;;;;;;;;;5026954;28;20041;-68
2024/02/15 14:20:54;;;;;;;4.88;3.15;;;;;;;;;;5026448;28;20044;-67
2024/02/15 14:23:19;;;;;;;4.07;2.85;;;;;;;;;;5027389;28;20048;-68
2024/02/15 14:25:45;;;;;;;4.93;3.00;;;;;;;;;;5008803;28;20027;-72
2024/02/15 14:28:10;;;;;;;3.85;3.00;;;;;;;;;;5025248;28;20158;-72
2024/02/15 14:33:22;;;;;;;2.85;2.10;;;;;;;;;;5029635;28;20072;-65
2024/02/15 14:35:48;;;;;;;3.20;2.45;;;;;;;;;;5024882;28;20038;-64
2024/02/15 14:38:15;;;;;;;3.33;2.55;;;;;;;;;;5010132;28;20045;-67
2024/02/15 14:40:40;;;;;;;4.07;2.35;;;;;;;;;;5027448;28;20042;-65
2024/02/15 14:43:06;;;;;;;4.15;2.40;;;;;;;;;;5024578;28;20057;-66
2024/02/15 14:45:32;;;;;;;3.42;2.35;;;;;;;;;;5026783;28;20124;-63
2024/02/15 14:48:03;;;;;;;3.97;2.38;;;;;;;;;;5029776;28;20387;-65
2024/02/15 14:50:28;;;;;;;3.35;2.20;;;;;;;;;;5029630;28;20036;-64
2024/02/15 14:52:54;;;;;;;4.00;2.58;;;;;;;;;;5027324;28;20026;-64
2024/02/15 14:55:20;;;;;;;3.22;2.25;;;;;;;;;;5025199;28;20041;-63
2024/02/15 14:57:45;;;;;;;3.88;2.50;;;;;;;;;;5026350;28;20036;-63
2024/02/15 15:00:13;;;;;;;2.58;1.95;;;;;;;;;;5027072;28;20064;-63
2024/02/15 15:02:41;;;;;;;3.28;2.38;;;;;;;;;;4999104;28;20046;-63
2024/02/15 15:13:19;;;;;;;2.83;2.15;;;;;;;;;;5026218;28;20041;-62
2024/02/15 15:15:45;;;;;;;6.32;3.40;;;;;;;;;;5012221;28;20447;-63
2024/02/15 15:18:11;;;;;;;3.90;2.30;;;;;;;;;;5028374;28;20459;-62